Marc Voigt

Recruteur - Werder Bremen
22 Juin 2028
Jeudi
Processus

Personnalité

Adaptabilité (18) Ambition (20) Controverse (19) Loyauté (12) Pression (19) Professionnalisme (1) Sportivité (2) Tempérament (3)

Profil

Style d'entraînement Démocratique
Diplôme National B
Détermination 10
Gestion des joueurs 5
Motivation 10
Discipline 7
Satisfaction professionnelle
100%
Fatigue
0%
Rôle Recruteur
Salaire 77.0K p/s
Contrat 14.03.2029

Performance

Comportement Bon
Efficacité de l'entraînement
30%
Développement des joueurs
55%
Prévention des blessures
60%
Mise en place tactique
30%

Événements récents

A participé à une réunion de recrutement maintenant
A évalué un joueur 7j
A participé à une réunion de recrutement 7j
A recommandé une cible de transfert 7j
A présenté un dossier au conseil 7j
A participé à une réunion de recrutement 14j
A recommandé une cible de transfert 14j
A recommandé une cible de transfert 14j

Suivi en cours

102
Joueur Club Statut Capacité Confiance Observé Dernière observation Dernier vote
Mads Pedersen Bayer Leverkusen Actif 129 / 133 72% 1 19.06.2028 Approuver
Alphadjo Cissé Bologna Actif 127 / 142 40% 1 12.06.2028 -
Jorthy Mokio Ajax Actif 133 / 145 40% 1 12.06.2028 -
Sebastian Lodberg Pergolettese Actif 111 / 106 40% 1 12.06.2028 -
Nicolas Höfler Mainz 05 Perdu 124 / 129 72% 1 07.06.2028 -
Salvador Blopá Sporting CP Actif 125 / 123 40% 2 03.06.2028 -
Hasan Ayyildiz Pachuca Actif 92 / 102 40% 1 03.06.2028 -
Lucas Høgsberg RC Strasbourg Actif 146 / 141 40% 1 03.06.2028 -
Leonel Jaime River Plate Actif 104 / 124 40% 1 03.01.2028 -
Mateo Peralta Danubio Actif 104 / 114 40% 2 31.08.2027 -
Peter Amidu Acquah Asante Kotoko Actif 90 / 104 40% 1 25.08.2027 -
Santiago Puzzo Al Dhafra Actif 122 / 111 40% 1 24.08.2027 -
Yan Diomandé Real Madrid Actif 151 / 158 40% 1 24.08.2027 -
Alejandro Mina Cortulua Actif 103 / 122 40% 2 21.08.2027 -
Davide Bartesaghi AC Milan Actif 130 / 144 40% 1 20.08.2027 -
Lucas Duré Montevideo City Torque Actif 107 / 104 40% 1 20.08.2027 -
Axel Tape TSG Hoffenheim Actif 122 / 131 40% 1 17.08.2027 -
Julián Palacios Envigado Actif 126 / 120 40% 1 16.08.2027 -
Edmund Baidoo Red Bull Salzburg Actif 133 / 134 40% 1 15.08.2027 -
Federico Redondo Elche Actif 120 / 127 40% 1 13.08.2027 -
Roger Hinojo Espanyol Actif 117 / 126 40% 2 11.08.2027 -
Tom Rothe Union Berlin Actif 138 / 147 40% 1 11.08.2027 -
Aleix Garrido Eibar Actif 136 / 132 40% 1 11.08.2027 -
Samuele Angori Pisa Actif 139 / 140 40% 2 09.08.2027 -
Brandon Aguilera Rio Ave Actif 127 / 120 40% 2 09.08.2027 -
Oscar Fraulo Derby County Actif 127 / 128 40% 1 09.08.2027 -
Max Conway Bolton Wanderers Actif 126 / 124 40% 3 08.08.2027 -
Wagner Pina Trabzonspor Actif 131 / 129 40% 2 08.08.2027 -
Pau Casadesús Granada Actif 122 / 118 40% 1 08.08.2027 -
Mario García Racing Santander Actif 121 / 128 40% 3 05.08.2027 -
Junior Tchamadeu Stoke City Actif 133 / 124 40% 1 05.08.2027 -
Didier Dawson Envigado Actif 97 / 109 40% 1 03.08.2027 -
Mattia Rutigliano Pro Vercelli Actif 96 / 107 40% 2 28.07.2027 -
Brodie Spencer Oxford United Actif 120 / 127 40% 2 28.07.2027 -
Maguette Guèye Racing Santander Actif 132 / 126 40% 1 28.07.2027 -
Ramón Valladolid Actif 139 / 136 40% 1 28.07.2027 -
Asanele Bonani Chippa United Actif 86 / 94 40% 1 28.07.2027 -
Bojan Kovačević Cádiz Actif 129 / 139 40% 3 25.07.2027 -
Joel McGregor Swindon Town Actif 89 / 102 40% 1 24.07.2027 -
Paul Wanner PSV Actif 139 / 136 40% 1 24.07.2027 -
Lewis Bate Stockport County Actif 125 / 130 40% 1 23.07.2027 -
Ryan Trevitt Peterborough United Actif 115 / 121 40% 1 23.07.2027 -
Jens Hjertø-Dahl Hull City Actif 120 / 129 40% 2 22.07.2027 -
Lander Astiazarán Real Sociedad Actif 115 / 117 40% 2 21.07.2027 -
Moussa Diakité Cádiz Actif 122 / 129 40% 1 19.07.2027 -
Mateus Mide Porto Actif 97 / 108 40% 1 18.07.2027 -
Nestory Irankunda Watford Actif 118 / 128 40% 1 18.07.2027 -
Álex Lizancos Burgos Actif 130 / 125 40% 4 17.07.2027 -
Maestro Alanyaspor Actif 116 / 126 40% 1 15.07.2027 -
Héctor Fort Real Sociedad Actif 145 / 146 40% 3 14.07.2027 -
Sidiki Chérif Coventry City Actif 135 / 131 40% 3 13.07.2027 -
Chris Rigg Bournemouth Actif 139 / 141 40% 3 11.07.2027 -
Ryunosuke Sato Valencia Actif 125 / 135 40% 1 09.07.2027 -
Jay Robinson Southampton Actif 121 / 129 40% 1 08.07.2027 -
Bayron Duarte Queretaro Actif 122 / 119 40% 1 08.07.2027 -
Thomas Sandon Vicenza Actif 124 / 121 40% 1 08.07.2027 -
Ayoub Oufkir AZ Actif 136 / 140 40% 1 06.07.2027 -
Andile Furman Free State Stars Actif 92 / 114 40% 1 06.07.2027 -
André Miranda Porto Actif 103 / 113 40% 1 04.07.2027 -
Pedro Henrique Shakhtar Actif 140 / 132 40% 3 01.07.2027 -
Jaydee Canvot Crystal Palace Actif 135 / 139 40% 2 30.06.2027 -
Nacer Boyata Mouscron Actif 128 / 142 40% 1 26.06.2027 -
Festy Ebosele Basaksehir Actif 137 / 137 40% 2 25.06.2027 -
Mattia Zanotti Lugano Perdu 126 / 128 40% 3 24.06.2027 -
Matteo Dams Club Brugge Actif 129 / 132 40% 1 24.06.2027 -
Marcus Linday Heerenveen Actif 127 / 118 40% 1 23.06.2027 -
Lee Tae-Suk Austria Wien Actif 126 / 127 40% 1 23.06.2027 -
Bjorn Meijer Sampdoria Actif 127 / 124 40% 2 22.06.2027 -
Olívio Tomé Benfica Actif 107 / 111 40% 2 22.06.2027 -
Freddie Potts Club Brugge Actif 135 / 130 40% 1 22.06.2027 -
Alexis Fretes Libertad Actif 107 / 115 40% 1 22.06.2027 -
Martim Cunha Porto Actif 97 / 111 40% 1 22.06.2027 -
Michael Gregoritsch Actif 128 / 125 69% 1 21.06.2027 Approuver
Rodrigo Huescas FC Copenhagen Actif 149 / 137 40% 3 20.06.2027 -
Léandre Kuavita Waasland-Beveren Actif 121 / 127 40% 1 16.06.2027 -
Hugo Larsson Eintracht Frankfurt Actif 137 / 145 40% 1 15.06.2027 -
Mauro Perković Cracovia Actif 127 / 116 40% 1 14.06.2027 -
Anselmo García Mac Nulty Getafe Actif 123 / 124 40% 1 14.06.2027 -
Dani Díaz Real Sociedad Actif 107 / 120 40% 1 12.06.2027 -
David Hubert Mouscron Actif 136 / 130 40% 2 11.06.2027 -
Marco Kana Anderlecht Actif 134 / 128 40% 1 11.06.2027 -
Matheus Gonçalves Al-Ahli Actif 117 / 130 40% 2 10.06.2027 -
Tony Strata Vitoria Guimaraes Actif 124 / 128 40% 1 08.06.2027 -
Mahamadou Doumbia Al-Ittihad Actif 124 / 125 40% 2 07.06.2027 -
Omar Campos Cruz Azul Actif 135 / 137 40% 1 05.06.2027 -
Marlon Gomes Shakhtar Actif 143 / 135 40% 1 05.06.2027 -
Mamadou Coulibaly Al Jazira Actif 118 / 116 40% 1 04.06.2027 -
Sanel Šaljić Austria Wien Actif 111 / 124 40% 1 02.06.2027 -
Breno Bidon Corinthians Actif 130 / 128 40% 1 31.01.2027 -
Honest Ahanor Udinese Actif 134 / 142 40% 2 26.01.2027 -
Mert Kömür Bayer Leverkusen Actif 130 / 135 40% 2 24.01.2027 -
Dehmaine Tabibou FC Nantes Actif 122 / 123 40% 1 24.01.2027 -
Keita Kosugi Eintracht Frankfurt Actif 114 / 129 40% 1 21.01.2027 -
Gonçalo Sousa Porto Actif 115 / 114 40% 1 21.01.2027 -
Eliesse Ben Seghir Bayer Leverkusen Actif 135 / 130 40% 1 20.01.2027 -
Joaquin Seys Club Brugge Actif 127 / 131 40% 1 04.01.2027 -
Robert FC Copenhagen Actif 126 / 123 40% 1 03.01.2027 -
Elías Báez Atlanta United FC Actif 126 / 128 40% 1 19.08.2026 -
Ignacio Perruzzi San Lorenzo Actif 128 / 132 40% 1 19.08.2026 Plus d'infos
Jonas Harder Basel Actif 103 / 114 40% 1 10.08.2026 -
Fodé Sylla Sion Actif 100 / 125 40% 1 10.08.2026 -
Thalys Almería Actif 117 / 121 40% 1 01.08.2026 -